createdAt,value
2019-02-19T00:01:29.519Z,91.30
2019-02-19T00:05:31.404Z,91.30
2019-02-19T00:09:33.328Z,91.30
2019-02-19T00:13:35.411Z,91.20
2019-02-19T00:17:37.313Z,91.20
2019-02-19T00:21:39.223Z,90.90
2019-02-19T00:25:41.121Z,91.40
2019-02-19T00:29:43.026Z,91.00
2019-02-19T00:33:45.153Z,91.00
2019-02-19T00:37:47.052Z,91.00
2019-02-19T00:41:48.957Z,91.00
2019-02-19T00:45:50.859Z,90.80
2019-02-19T00:49:53.131Z,91.10
2019-02-19T00:53:55.023Z,91.30
2019-02-19T00:57:56.943Z,91.20
2019-02-19T01:01:58.846Z,91.10
2019-02-19T01:06:00.735Z,90.90
2019-02-19T01:10:02.806Z,91.00
2019-02-19T01:14:05.908Z,91.40
2019-02-19T01:18:08.790Z,91.40
2019-02-19T01:22:10.785Z,91.60
2019-02-19T01:26:12.891Z,91.90
2019-02-19T01:30:15.329Z,91.50
2019-02-19T01:34:17.383Z,91.50
2019-02-19T01:38:19.383Z,91.20
2019-02-19T01:42:21.360Z,91.50
2019-02-19T01:46:24.080Z,91.60
2019-02-19T01:50:26.014Z,91.40
2019-02-19T01:54:27.924Z,91.30
2019-02-19T01:58:30.804Z,91.20
2019-02-19T02:02:32.688Z,91.20
2019-02-19T02:06:34.626Z,91.40
2019-02-19T02:10:36.531Z,91.40
2019-02-19T02:14:38.438Z,91.40
2019-02-19T02:18:40.426Z,91.70
2019-02-19T02:22:42.459Z,91.40
2019-02-19T02:26:44.534Z,91.40
2019-02-19T02:30:46.567Z,91.50
2019-02-19T02:34:48.512Z,91.40
2019-02-19T02:38:50.413Z,91.60
2019-02-19T02:42:52.304Z,91.60
2019-02-19T02:46:54.208Z,91.70
2019-02-19T02:50:56.131Z,92.10
2019-02-19T02:54:58.031Z,91.90
2019-02-19T02:58:59.950Z,91.90
2019-02-19T03:03:01.846Z,92.00
2019-02-19T03:07:05.394Z,91.80
2019-02-19T03:11:07.305Z,91.40
2019-02-19T03:15:10.594Z,91.40
2019-02-19T03:19:12.499Z,91.60
2019-02-19T03:23:14.402Z,91.30
2019-02-19T03:27:16.307Z,91.30
2019-02-19T03:31:18.224Z,91.40
2019-02-19T03:35:20.127Z,91.70
2019-02-19T03:39:22.043Z,91.90
2019-02-19T03:43:23.960Z,91.80
2019-02-19T03:47:25.851Z,91.70
2019-02-19T03:51:27.765Z,91.70
2019-02-19T03:55:29.772Z,91.80
2019-02-19T03:59:31.753Z,91.70
2019-02-19T04:03:33.662Z,91.40
2019-02-19T04:07:35.568Z,91.90
2019-02-19T04:11:37.481Z,92.60
2019-02-19T04:15:39.412Z,92.50
2019-02-19T04:19:41.318Z,92.10
2019-02-19T04:23:43.229Z,91.70
2019-02-19T04:27:45.171Z,91.80
2019-02-19T04:31:47.128Z,92.20
2019-02-19T04:35:49.045Z,92.20
2019-02-19T04:39:51.122Z,92.00
2019-02-19T04:43:53.322Z,91.70
2019-02-19T04:47:55.615Z,92.20
2019-02-19T04:51:57.617Z,92.20
2019-02-19T04:55:59.581Z,91.90
2019-02-19T05:00:01.490Z,92.10
2019-02-19T05:04:03.694Z,92.00
2019-02-19T05:08:05.716Z,92.10
2019-02-19T05:12:07.685Z,91.90
2019-02-19T05:16:09.588Z,91.80
2019-02-19T05:20:11.509Z,91.80
2019-02-19T05:24:13.492Z,92.20
2019-02-19T05:28:15.441Z,92.10
2019-02-19T05:32:17.343Z,92.00
2019-02-19T05:36:19.261Z,92.10
2019-02-19T05:40:21.162Z,92.00
2019-02-19T05:44:23.650Z,92.00
2019-02-19T05:48:25.564Z,92.30
2019-02-19T05:52:27.471Z,92.00
2019-02-19T05:56:29.388Z,92.50
2019-02-19T06:00:32.268Z,91.90
2019-02-19T06:04:34.169Z,92.00
2019-02-19T06:08:36.082Z,92.10
2019-02-19T06:12:38.008Z,92.30
2019-02-19T06:16:39.907Z,92.10
2019-02-19T06:20:41.897Z,92.30
2019-02-19T06:24:43.793Z,92.10
2019-02-19T06:28:45.697Z,92.30
2019-02-19T06:32:47.601Z,92.40
2019-02-19T06:36:49.518Z,92.40
2019-02-19T06:40:51.442Z,92.30
2019-02-19T06:44:53.336Z,92.30
2019-02-19T06:48:55.245Z,92.60
2019-02-19T06:52:58.720Z,92.40
2019-02-19T06:57:00.808Z,92.20
2019-02-19T07:01:02.722Z,92.40
2019-02-19T07:05:06.628Z,92.20
2019-02-19T07:09:08.909Z,92.80
2019-02-19T07:13:10.897Z,92.60
2019-02-19T07:17:15.626Z,93.30
2019-02-19T07:21:16.559Z,92.80
2019-02-19T07:25:18.440Z,93.20
2019-02-19T07:29:20.359Z,93.40
2019-02-19T07:33:22.268Z,93.30
2019-02-19T07:37:24.289Z,93.50
2019-02-19T07:41:26.205Z,93.40
2019-02-19T07:45:28.101Z,93.50
2019-02-19T07:49:30.019Z,93.50
2019-02-19T07:53:31.937Z,93.50
2019-02-19T07:57:33.851Z,93.60
2019-02-19T08:01:35.810Z,93.50
2019-02-19T08:05:37.710Z,93.40
2019-02-19T08:09:39.651Z,93.30
2019-02-19T08:13:41.774Z,93.30
2019-02-19T08:17:43.982Z,93.60
2019-02-19T08:21:45.922Z,93.70
2019-02-19T08:25:47.976Z,93.50
2019-02-19T08:29:49.967Z,93.40
2019-02-19T08:33:52.073Z,93.30
2019-02-19T08:37:54.082Z,93.20
2019-02-19T08:41:56.000Z,93.10
2019-02-19T08:45:57.975Z,93.20
2019-02-19T08:49:59.895Z,93.00
2019-02-19T08:54:01.804Z,92.90
2019-02-19T08:58:03.707Z,92.70
2019-02-19T09:02:05.627Z,92.50
2019-02-19T09:06:07.550Z,92.20
2019-02-19T09:10:12.342Z,91.70
2019-02-19T09:14:14.310Z,91.40
2019-02-19T09:18:16.516Z,91.00
2019-02-19T09:22:18.630Z,90.40
2019-02-19T09:26:20.737Z,90.40
2019-02-19T09:30:22.633Z,88.80
2019-02-19T09:34:24.792Z,87.20
2019-02-19T09:38:26.759Z,85.50
2019-02-19T09:42:28.649Z,85.50
2019-02-19T09:46:30.597Z,84.10
2019-02-19T09:50:32.494Z,83.00
2019-02-19T09:54:34.432Z,80.80
2019-02-19T09:58:36.535Z,80.40
2019-02-19T10:02:38.518Z,78.30
2019-02-19T10:06:40.693Z,76.70
2019-02-19T10:10:43.004Z,75.00
2019-02-19T10:14:44.961Z,73.30
2019-02-19T10:18:46.856Z,72.40
2019-02-19T10:22:48.801Z,73.60
2019-02-19T10:26:50.701Z,70.10
2019-02-19T10:30:52.616Z,67.00
2019-02-19T10:34:54.533Z,66.50
2019-02-19T10:38:56.426Z,66.20
2019-02-19T10:42:58.339Z,61.70
2019-02-19T10:47:00.216Z,61.20
2019-02-19T10:51:02.147Z,55.40
2019-02-19T10:55:04.318Z,54.90
2019-02-19T10:59:07.289Z,52.80
2019-02-19T11:03:09.544Z,52.40
2019-02-19T11:07:11.427Z,51.60
2019-02-19T11:11:13.401Z,52.20
2019-02-19T11:15:17.520Z,53.60
2019-02-19T11:19:19.581Z,54.60
2019-02-19T11:23:21.475Z,55.00
2019-02-19T11:27:23.920Z,56.00
2019-02-19T11:31:25.816Z,57.10
2019-02-19T11:35:27.784Z,56.00
2019-02-19T11:39:29.992Z,55.80
2019-02-19T11:43:33.133Z,55.20
2019-02-19T11:47:35.147Z,55.20
2019-02-19T11:51:37.048Z,54.60
2019-02-19T11:55:38.956Z,54.60
2019-02-19T11:59:40.867Z,55.30
2019-02-19T12:03:42.779Z,55.20
2019-02-19T12:07:44.679Z,55.70
2019-02-19T12:11:46.586Z,54.90
2019-02-19T12:15:48.556Z,55.30
2019-02-19T12:19:50.514Z,54.90
2019-02-19T12:23:52.498Z,56.20
2019-02-19T12:27:54.410Z,55.80
2019-02-19T12:31:56.302Z,56.40
2019-02-19T12:35:58.221Z,57.60
2019-02-19T12:40:00.109Z,57.20
2019-02-19T12:44:02.095Z,58.00
2019-02-19T12:48:03.994Z,58.30
2019-02-19T12:52:05.890Z,59.00
2019-02-19T12:56:07.857Z,59.50
2019-02-19T13:00:16.805Z,59.80
2019-02-19T13:04:18.690Z,60.70
2019-02-19T13:08:20.589Z,60.10
2019-02-19T13:12:22.503Z,60.00
2019-02-19T13:16:24.393Z,60.50
2019-02-19T13:20:26.276Z,60.10
2019-02-19T13:24:28.160Z,60.40
2019-02-19T13:28:30.051Z,60.50
2019-02-19T13:32:31.960Z,60.30
2019-02-19T13:36:33.859Z,60.00
2019-02-19T13:40:35.955Z,59.80
2019-02-19T13:44:37.849Z,59.50
2019-02-19T13:48:39.758Z,59.60
2019-02-19T13:52:43.290Z,60.20
2019-02-19T13:56:45.183Z,61.30
2019-02-19T14:00:48.721Z,61.70
2019-02-19T14:04:50.680Z,62.00
2019-02-19T14:08:52.571Z,62.60
2019-02-19T14:12:54.481Z,62.70
2019-02-19T14:16:57.761Z,63.80
2019-02-19T14:21:07.270Z,64.50
2019-02-19T14:25:14.350Z,65.00
2019-02-19T14:29:29.860Z,66.20
2019-02-19T14:33:51.807Z,65.70
2019-02-19T14:37:56.239Z,65.90
2019-02-19T14:42:01.831Z,67.20
2019-02-19T14:46:10.803Z,68.90
2019-02-19T14:50:31.106Z,68.30
2019-02-19T14:54:40.470Z,68.70
2019-02-19T14:58:59.703Z,69.10
2019-02-19T15:03:03.234Z,68.50
2019-02-19T15:07:18.692Z,69.10
2019-02-19T15:11:27.665Z,69.20
2019-02-19T15:15:40.210Z,69.10
2019-02-19T15:19:55.598Z,69.70
2019-02-19T15:24:18.890Z,70.00
2019-02-19T15:28:29.195Z,70.60
2019-02-19T15:32:42.676Z,71.10
2019-02-19T15:36:57.709Z,71.50
2019-02-19T15:41:13.019Z,71.10
2019-02-19T15:45:33.031Z,70.80
2019-02-19T15:49:48.517Z,71.50
2019-02-19T15:54:01.711Z,72.40
2019-02-19T15:58:05.257Z,72.20
2019-02-19T16:02:25.744Z,73.00
2019-02-19T16:06:29.271Z,73.20
2019-02-19T16:10:32.836Z,74.00
2019-02-19T16:14:52.502Z,74.70
2019-02-19T16:18:56.048Z,75.30
2019-02-19T16:22:57.746Z,75.50
2019-02-19T16:27:13.289Z,75.80
2019-02-19T16:31:25.979Z,76.30
2019-02-19T16:35:29.555Z,77.00
2019-02-19T16:39:41.894Z,77.40
2019-02-19T16:43:54.356Z,77.90
2019-02-19T16:48:03.339Z,78.10
2019-02-19T16:52:23.158Z,79.50
2019-02-19T16:56:36.962Z,79.50
2019-02-19T17:00:42.985Z,79.70
2019-02-19T17:05:02.683Z,80.60
2019-02-19T17:09:08.569Z,80.70
2019-02-19T17:13:21.404Z,81.30
2019-02-19T17:17:23.901Z,80.00
2019-02-19T17:21:30.102Z,82.40
2019-02-19T17:25:46.625Z,82.60
2019-02-19T17:30:06.278Z,83.30
2019-02-19T17:34:27.099Z,83.50
2019-02-19T17:38:30.622Z,84.40
2019-02-19T17:42:42.606Z,84.70
2019-02-19T17:47:02.250Z,85.10
2019-02-19T17:51:15.716Z,85.10
2019-02-19T17:55:35.720Z,85.00
2019-02-19T17:59:39.312Z,84.80
2019-02-19T18:03:48.878Z,85.40
2019-02-19T18:07:52.468Z,86.10
2019-02-19T18:11:56.007Z,86.80
2019-02-19T18:15:59.557Z,87.10
2019-02-19T18:20:01.887Z,86.90
2019-02-19T18:24:04.761Z,88.50
2019-02-19T18:28:06.626Z,90.10
2019-02-19T18:32:08.528Z,90.40
2019-02-19T18:36:10.421Z,90.20
2019-02-19T18:40:12.335Z,90.70
2019-02-19T18:44:14.260Z,90.70
2019-02-19T18:48:16.148Z,90.50
2019-02-19T18:52:18.048Z,90.90
2019-02-19T18:56:19.937Z,90.80
2019-02-19T19:00:21.839Z,90.60
2019-02-19T19:04:24.201Z,90.90
2019-02-19T19:08:26.164Z,90.80
2019-02-19T19:12:28.065Z,91.70
2019-02-19T19:16:29.981Z,91.80
2019-02-19T19:20:31.886Z,91.30
2019-02-19T19:24:33.832Z,91.90
2019-02-19T19:28:35.739Z,91.30
2019-02-19T19:32:37.664Z,91.50
2019-02-19T19:36:39.550Z,91.30
2019-02-19T19:40:41.452Z,91.40
2019-02-19T19:44:43.416Z,91.40
2019-02-19T19:48:45.966Z,91.60
2019-02-19T19:52:47.991Z,91.70
2019-02-19T19:56:49.893Z,91.60
2019-02-19T20:00:51.803Z,91.50
2019-02-19T20:04:53.681Z,91.80
2019-02-19T20:08:55.609Z,91.70
2019-02-19T20:12:57.561Z,92.10
2019-02-19T20:16:59.473Z,92.00
2019-02-19T20:21:01.368Z,92.40
2019-02-19T20:25:05.488Z,92.50
2019-02-19T20:29:07.457Z,92.80
2019-02-19T20:33:09.356Z,92.50
2019-02-19T20:37:11.234Z,93.10
2019-02-19T20:41:13.198Z,93.60
2019-02-19T20:45:15.469Z,93.90
2019-02-19T20:49:17.461Z,93.60
2019-02-19T20:53:19.424Z,93.10
2019-02-19T20:57:21.488Z,93.00
2019-02-19T21:01:24.308Z,93.30
2019-02-19T21:05:26.210Z,93.00
2019-02-19T21:09:28.089Z,93.00
2019-02-19T21:13:29.988Z,93.00
2019-02-19T21:17:31.881Z,92.80
2019-02-19T21:21:33.771Z,93.00
2019-02-19T21:25:35.666Z,92.70
2019-02-19T21:29:38.451Z,92.90
2019-02-19T21:33:40.346Z,92.80
2019-02-19T21:37:42.254Z,92.90
2019-02-19T21:41:44.570Z,93.20
2019-02-19T21:45:46.452Z,93.00
2019-02-19T21:49:48.370Z,93.10
2019-02-19T21:53:52.645Z,93.50
2019-02-19T21:57:54.534Z,93.30
2019-02-19T22:01:56.458Z,93.40
2019-02-19T22:05:58.420Z,93.70
2019-02-19T22:10:01.399Z,93.40
2019-02-19T22:14:03.905Z,93.30
2019-02-19T22:18:05.805Z,93.10
2019-02-19T22:22:09.434Z,93.40
2019-02-19T22:26:11.376Z,93.70
2019-02-19T22:30:13.431Z,93.70
2019-02-19T22:34:15.408Z,93.50
2019-02-19T22:38:17.794Z,93.30
2019-02-19T22:42:19.718Z,93.40
2019-02-19T22:46:21.636Z,93.40
2019-02-19T22:50:24.325Z,93.40
2019-02-19T22:54:36.468Z,93.30
2019-02-19T22:58:38.381Z,93.10
2019-02-19T23:02:40.476Z,93.10
2019-02-19T23:06:43.359Z,92.90
2019-02-19T23:10:45.267Z,92.80
2019-02-19T23:14:47.180Z,92.70
2019-02-19T23:18:49.089Z,92.80
2019-02-19T23:22:51.013Z,92.60
2019-02-19T23:26:52.924Z,92.60
2019-02-19T23:30:54.833Z,92.50
2019-02-19T23:35:07.032Z,92.10
2019-02-19T23:39:09.367Z,92.60
2019-02-19T23:43:11.342Z,92.30
2019-02-19T23:47:13.262Z,92.20
2019-02-19T23:51:15.430Z,92.40
2019-02-19T23:55:17.339Z,92.10
2019-02-19T23:59:19.258Z,92.30
